sensor_id;sensor_type;location;lat;lon;timestamp;P1;durP1;ratioP1;P2;durP2;ratioP2
61702;SDS011;47622;47.726;3.298;2022-07-24T00:00:00;9.88;;;7.70;;
61702;SDS011;47622;47.726;3.298;2022-07-24T00:02:26;10.93;;;8.18;;
61702;SDS011;47622;47.726;3.298;2022-07-24T00:04:52;13.55;;;8.23;;
61702;SDS011;47622;47.726;3.298;2022-07-24T00:07:22;10.30;;;8.40;;
61702;SDS011;47622;47.726;3.298;2022-07-24T00:09:47;13.18;;;8.13;;
61702;SDS011;47622;47.726;3.298;2022-07-24T00:12:14;11.57;;;8.93;;
61702;SDS011;47622;47.726;3.298;2022-07-24T00:14:41;13.18;;;8.98;;
61702;SDS011;47622;47.726;3.298;2022-07-24T00:17:08;9.65;;;8.07;;
61702;SDS011;47622;47.726;3.298;2022-07-24T00:19:34;11.00;;;8.50;;
61702;SDS011;47622;47.726;3.298;2022-07-24T00:22:01;11.50;;;9.23;;
61702;SDS011;47622;47.726;3.298;2022-07-24T00:24:28;10.88;;;8.55;;
61702;SDS011;47622;47.726;3.298;2022-07-24T00:26:54;9.27;;;8.27;;
61702;SDS011;47622;47.726;3.298;2022-07-24T00:29:21;8.77;;;7.75;;
61702;SDS011;47622;47.726;3.298;2022-07-24T00:31:46;8.52;;;7.63;;
61702;SDS011;47622;47.726;3.298;2022-07-24T00:34:12;10.95;;;8.07;;
61702;SDS011;47622;47.726;3.298;2022-07-24T00:36:38;10.45;;;8.07;;
61702;SDS011;47622;47.726;3.298;2022-07-24T00:39:08;13.65;;;8.85;;
61702;SDS011;47622;47.726;3.298;2022-07-24T00:41:34;10.35;;;7.88;;
61702;SDS011;47622;47.726;3.298;2022-07-24T00:44:12;12.18;;;8.60;;
61702;SDS011;47622;47.726;3.298;2022-07-24T00:46:40;12.75;;;8.10;;
61702;SDS011;47622;47.726;3.298;2022-07-24T00:49:08;10.45;;;6.80;;
61702;SDS011;47622;47.726;3.298;2022-07-24T00:51:37;9.30;;;7.30;;
61702;SDS011;47622;47.726;3.298;2022-07-24T00:54:05;8.05;;;5.22;;
61702;SDS011;47622;47.726;3.298;2022-07-24T00:56:32;7.88;;;6.38;;
61702;SDS011;47622;47.726;3.298;2022-07-24T00:58:59;10.88;;;6.65;;
61702;SDS011;47622;47.726;3.298;2022-07-24T01:01:25;7.47;;;6.40;;
61702;SDS011;47622;47.726;3.298;2022-07-24T01:03:51;10.65;;;6.72;;
61702;SDS011;47622;47.726;3.298;2022-07-24T01:06:18;10.30;;;6.72;;
61702;SDS011;47622;47.726;3.298;2022-07-24T01:08:45;8.98;;;7.05;;
61702;SDS011;47622;47.726;3.298;2022-07-24T01:11:11;9.85;;;7.35;;
61702;SDS011;47622;47.726;3.298;2022-07-24T01:13:37;8.85;;;6.32;;
61702;SDS011;47622;47.726;3.298;2022-07-24T01:16:05;11.13;;;7.00;;
61702;SDS011;47622;47.726;3.298;2022-07-24T01:18:31;8.63;;;7.72;;
61702;SDS011;47622;47.726;3.298;2022-07-24T01:20:57;12.80;;;8.27;;
61702;SDS011;47622;47.726;3.298;2022-07-24T01:23:23;13.38;;;7.68;;
61702;SDS011;47622;47.726;3.298;2022-07-24T01:25:49;9.85;;;7.50;;
61702;SDS011;47622;47.726;3.298;2022-07-24T01:28:16;10.38;;;7.28;;
61702;SDS011;47622;47.726;3.298;2022-07-24T01:30:43;9.93;;;7.43;;
61702;SDS011;47622;47.726;3.298;2022-07-24T01:33:08;9.45;;;7.15;;
61702;SDS011;47622;47.726;3.298;2022-07-24T01:35:34;9.40;;;7.40;;
61702;SDS011;47622;47.726;3.298;2022-07-24T01:38:00;12.60;;;7.63;;
61702;SDS011;47622;47.726;3.298;2022-07-24T01:40:26;13.98;;;7.95;;
61702;SDS011;47622;47.726;3.298;2022-07-24T01:42:52;10.05;;;7.68;;
61702;SDS011;47622;47.726;3.298;2022-07-24T01:45:18;13.68;;;7.88;;
61702;SDS011;47622;47.726;3.298;2022-07-24T01:47:44;12.85;;;7.60;;
61702;SDS011;47622;47.726;3.298;2022-07-24T01:50:10;10.02;;;7.18;;
61702;SDS011;47622;47.726;3.298;2022-07-24T01:52:37;10.25;;;7.75;;
61702;SDS011;47622;47.726;3.298;2022-07-24T01:55:03;9.45;;;6.80;;
61702;SDS011;47622;47.726;3.298;2022-07-24T01:57:30;9.07;;;6.93;;
61702;SDS011;47622;47.726;3.298;2022-07-24T01:59:59;11.27;;;7.00;;
61702;SDS011;47622;47.726;3.298;2022-07-24T02:02:26;7.38;;;6.65;;
61702;SDS011;47622;47.726;3.298;2022-07-24T02:04:52;8.63;;;7.00;;
61702;SDS011;47622;47.726;3.298;2022-07-24T02:07:18;9.68;;;7.28;;
61702;SDS011;47622;47.726;3.298;2022-07-24T02:09:45;10.13;;;6.53;;
61702;SDS011;47622;47.726;3.298;2022-07-24T02:12:12;13.55;;;6.50;;
61702;SDS011;47622;47.726;3.298;2022-07-24T02:14:38;9.35;;;6.53;;
61702;SDS011;47622;47.726;3.298;2022-07-24T02:17:04;8.65;;;6.18;;
61702;SDS011;47622;47.726;3.298;2022-07-24T02:19:30;6.65;;;5.95;;
61702;SDS011;47622;47.726;3.298;2022-07-24T02:21:57;10.25;;;5.75;;
61702;SDS011;47622;47.726;3.298;2022-07-24T02:24:24;7.63;;;5.53;;
61702;SDS011;47622;47.726;3.298;2022-07-24T02:26:49;7.95;;;5.95;;
61702;SDS011;47622;47.726;3.298;2022-07-24T02:29:15;10.68;;;7.40;;
61702;SDS011;47622;47.726;3.298;2022-07-24T02:31:42;7.20;;;6.50;;
61702;SDS011;47622;47.726;3.298;2022-07-24T02:34:08;6.68;;;5.97;;
61702;SDS011;47622;47.726;3.298;2022-07-24T02:36:35;9.40;;;6.40;;
61702;SDS011;47622;47.726;3.298;2022-07-24T02:39:01;7.13;;;5.43;;
61702;SDS011;47622;47.726;3.298;2022-07-24T02:41:27;5.80;;;5.30;;
61702;SDS011;47622;47.726;3.298;2022-07-24T02:43:53;6.80;;;5.20;;
61702;SDS011;47622;47.726;3.298;2022-07-24T02:46:21;7.82;;;5.15;;
61702;SDS011;47622;47.726;3.298;2022-07-24T02:48:47;5.80;;;5.10;;
61702;SDS011;47622;47.726;3.298;2022-07-24T02:51:13;6.65;;;5.55;;
61702;SDS011;47622;47.726;3.298;2022-07-24T02:53:39;9.82;;;4.95;;
61702;SDS011;47622;47.726;3.298;2022-07-24T02:56:05;9.13;;;5.90;;
61702;SDS011;47622;47.726;3.298;2022-07-24T02:58:31;6.38;;;5.15;;
61702;SDS011;47622;47.726;3.298;2022-07-24T03:00:56;10.82;;;5.90;;
61702;SDS011;47622;47.726;3.298;2022-07-24T03:03:23;7.70;;;6.20;;
61702;SDS011;47622;47.726;3.298;2022-07-24T03:05:49;6.65;;;5.70;;
61702;SDS011;47622;47.726;3.298;2022-07-24T03:08:14;6.90;;;5.57;;
61702;SDS011;47622;47.726;3.298;2022-07-24T03:10:40;7.45;;;6.13;;
61702;SDS011;47622;47.726;3.298;2022-07-24T03:13:06;8.18;;;5.28;;
61702;SDS011;47622;47.726;3.298;2022-07-24T03:15:32;8.55;;;5.40;;
61702;SDS011;47622;47.726;3.298;2022-07-24T03:17:57;7.85;;;5.53;;
61702;SDS011;47622;47.726;3.298;2022-07-24T03:20:25;7.82;;;5.70;;
61702;SDS011;47622;47.726;3.298;2022-07-24T03:22:54;7.82;;;6.13;;
61702;SDS011;47622;47.726;3.298;2022-07-24T03:25:20;6.20;;;5.45;;
61702;SDS011;47622;47.726;3.298;2022-07-24T03:27:46;6.00;;;5.38;;
61702;SDS011;47622;47.726;3.298;2022-07-24T03:30:13;8.10;;;5.82;;
61702;SDS011;47622;47.726;3.298;2022-07-24T03:32:40;7.63;;;5.85;;
61702;SDS011;47622;47.726;3.298;2022-07-24T03:35:08;6.85;;;6.10;;
61702;SDS011;47622;47.726;3.298;2022-07-24T03:37:34;9.20;;;6.18;;
61702;SDS011;47622;47.726;3.298;2022-07-24T03:40:00;7.00;;;6.10;;
61702;SDS011;47622;47.726;3.298;2022-07-24T03:42:26;7.32;;;6.25;;
61702;SDS011;47622;47.726;3.298;2022-07-24T03:44:52;10.60;;;5.90;;
61702;SDS011;47622;47.726;3.298;2022-07-24T03:47:18;7.13;;;5.55;;
61702;SDS011;47622;47.726;3.298;2022-07-24T03:49:44;6.25;;;5.50;;
61702;SDS011;47622;47.726;3.298;2022-07-24T03:52:10;6.38;;;5.57;;
61702;SDS011;47622;47.726;3.298;2022-07-24T03:54:35;5.07;;;4.57;;
61702;SDS011;47622;47.726;3.298;2022-07-24T03:57:01;5.88;;;5.03;;
61702;SDS011;47622;47.726;3.298;2022-07-24T03:59:27;7.30;;;6.32;;
61702;SDS011;47622;47.726;3.298;2022-07-24T04:01:53;7.82;;;5.10;;
61702;SDS011;47622;47.726;3.298;2022-07-24T04:04:19;7.15;;;6.45;;
61702;SDS011;47622;47.726;3.298;2022-07-24T04:06:44;9.73;;;7.22;;
61702;SDS011;47622;47.726;3.298;2022-07-24T04:09:10;9.90;;;6.72;;
61702;SDS011;47622;47.726;3.298;2022-07-24T04:11:36;9.10;;;6.22;;
61702;SDS011;47622;47.726;3.298;2022-07-24T04:14:02;6.30;;;5.70;;
61702;SDS011;47622;47.726;3.298;2022-07-24T04:16:28;6.88;;;6.18;;
61702;SDS011;47622;47.726;3.298;2022-07-24T04:18:54;6.05;;;5.50;;
61702;SDS011;47622;47.726;3.298;2022-07-24T04:21:20;7.97;;;5.22;;
61702;SDS011;47622;47.726;3.298;2022-07-24T04:23:46;6.13;;;5.53;;
61702;SDS011;47622;47.726;3.298;2022-07-24T04:26:12;6.47;;;5.78;;
61702;SDS011;47622;47.726;3.298;2022-07-24T04:28:38;5.25;;;4.55;;
61702;SDS011;47622;47.726;3.298;2022-07-24T04:31:04;5.93;;;5.13;;
61702;SDS011;47622;47.726;3.298;2022-07-24T04:33:29;6.35;;;5.15;;
61702;SDS011;47622;47.726;3.298;2022-07-24T04:35:55;8.85;;;5.05;;
61702;SDS011;47622;47.726;3.298;2022-07-24T04:38:21;8.55;;;4.50;;
61702;SDS011;47622;47.726;3.298;2022-07-24T04:40:47;7.78;;;4.95;;
61702;SDS011;47622;47.726;3.298;2022-07-24T04:43:12;7.53;;;5.28;;
61702;SDS011;47622;47.726;3.298;2022-07-24T04:45:38;6.30;;;4.90;;
61702;SDS011;47622;47.726;3.298;2022-07-24T04:48:04;10.40;;;4.82;;
61702;SDS011;47622;47.726;3.298;2022-07-24T04:50:30;6.43;;;5.13;;
61702;SDS011;47622;47.726;3.298;2022-07-24T04:52:56;10.73;;;5.10;;
61702;SDS011;47622;47.726;3.298;2022-07-24T04:55:22;8.13;;;5.72;;
61702;SDS011;47622;47.726;3.298;2022-07-24T04:57:48;12.85;;;5.63;;
61702;SDS011;47622;47.726;3.298;2022-07-24T05:00:14;8.48;;;5.70;;
61702;SDS011;47622;47.726;3.298;2022-07-24T05:02:40;7.97;;;5.70;;
61702;SDS011;47622;47.726;3.298;2022-07-24T05:05:06;5.95;;;5.10;;
61702;SDS011;47622;47.726;3.298;2022-07-24T05:07:32;6.65;;;5.00;;
61702;SDS011;47622;47.726;3.298;2022-07-24T05:09:58;11.20;;;5.28;;
61702;SDS011;47622;47.726;3.298;2022-07-24T05:12:24;9.35;;;5.05;;
61702;SDS011;47622;47.726;3.298;2022-07-24T05:14:51;14.95;;;4.90;;
61702;SDS011;47622;47.726;3.298;2022-07-24T05:17:18;11.15;;;5.88;;
61702;SDS011;47622;47.726;3.298;2022-07-24T05:19:44;14.02;;;5.30;;
61702;SDS011;47622;47.726;3.298;2022-07-24T05:22:09;6.90;;;5.07;;
61702;SDS011;47622;47.726;3.298;2022-07-24T05:24:35;8.13;;;5.10;;
61702;SDS011;47622;47.726;3.298;2022-07-24T05:27:01;9.32;;;4.95;;
61702;SDS011;47622;47.726;3.298;2022-07-24T05:29:26;7.80;;;5.55;;
61702;SDS011;47622;47.726;3.298;2022-07-24T05:31:52;8.73;;;5.32;;
61702;SDS011;47622;47.726;3.298;2022-07-24T05:34:21;8.32;;;6.40;;
61702;SDS011;47622;47.726;3.298;2022-07-24T05:36:49;9.95;;;7.20;;
61702;SDS011;47622;47.726;3.298;2022-07-24T05:39:15;11.00;;;9.48;;
61702;SDS011;47622;47.726;3.298;2022-07-24T05:41:41;9.93;;;8.65;;
61702;SDS011;47622;47.726;3.298;2022-07-24T05:44:08;10.23;;;7.90;;
61702;SDS011;47622;47.726;3.298;2022-07-24T05:46:33;11.48;;;8.77;;
61702;SDS011;47622;47.726;3.298;2022-07-24T05:48:59;12.32;;;8.48;;
61702;SDS011;47622;47.726;3.298;2022-07-24T05:51:25;12.27;;;8.93;;
61702;SDS011;47622;47.726;3.298;2022-07-24T05:53:51;11.50;;;9.15;;
61702;SDS011;47622;47.726;3.298;2022-07-24T05:56:17;11.38;;;9.05;;
61702;SDS011;47622;47.726;3.298;2022-07-24T05:58:43;11.13;;;9.18;;
61702;SDS011;47622;47.726;3.298;2022-07-24T06:01:08;11.30;;;9.85;;
61702;SDS011;47622;47.726;3.298;2022-07-24T06:03:34;12.43;;;9.70;;
61702;SDS011;47622;47.726;3.298;2022-07-24T06:06:03;11.70;;;9.82;;
61702;SDS011;47622;47.726;3.298;2022-07-24T06:08:29;14.68;;;9.18;;
61702;SDS011;47622;47.726;3.298;2022-07-24T06:10:55;10.02;;;8.35;;
61702;SDS011;47622;47.726;3.298;2022-07-24T06:13:21;13.13;;;8.80;;
61702;SDS011;47622;47.726;3.298;2022-07-24T06:15:47;11.73;;;8.93;;
61702;SDS011;47622;47.726;3.298;2022-07-24T06:18:13;14.75;;;10.30;;
61702;SDS011;47622;47.726;3.298;2022-07-24T06:20:40;12.57;;;9.80;;
61702;SDS011;47622;47.726;3.298;2022-07-24T06:23:07;12.43;;;10.15;;
61702;SDS011;47622;47.726;3.298;2022-07-24T06:25:33;14.45;;;10.13;;
61702;SDS011;47622;47.726;3.298;2022-07-24T06:27:59;14.27;;;10.45;;
61702;SDS011;47622;47.726;3.298;2022-07-24T06:30:26;13.38;;;10.32;;
61702;SDS011;47622;47.726;3.298;2022-07-24T06:32:54;12.85;;;10.68;;
61702;SDS011;47622;47.726;3.298;2022-07-24T06:35:21;10.73;;;8.82;;
61702;SDS011;47622;47.726;3.298;2022-07-24T06:37:48;11.68;;;9.38;;
61702;SDS011;47622;47.726;3.298;2022-07-24T06:40:16;13.05;;;8.63;;
61702;SDS011;47622;47.726;3.298;2022-07-24T06:42:44;11.82;;;8.30;;
61702;SDS011;47622;47.726;3.298;2022-07-24T06:45:11;11.32;;;9.02;;
61702;SDS011;47622;47.726;3.298;2022-07-24T06:47:37;9.63;;;8.23;;
61702;SDS011;47622;47.726;3.298;2022-07-24T06:50:03;13.48;;;9.15;;
61702;SDS011;47622;47.726;3.298;2022-07-24T06:52:29;14.30;;;9.18;;
61702;SDS011;47622;47.726;3.298;2022-07-24T06:54:54;10.85;;;9.07;;
61702;SDS011;47622;47.726;3.298;2022-07-24T06:57:20;11.52;;;9.55;;
61702;SDS011;47622;47.726;3.298;2022-07-24T06:59:47;10.45;;;9.02;;
61702;SDS011;47622;47.726;3.298;2022-07-24T07:02:13;9.63;;;8.13;;
61702;SDS011;47622;47.726;3.298;2022-07-24T07:04:39;15.70;;;9.73;;
61702;SDS011;47622;47.726;3.298;2022-07-24T07:07:06;13.32;;;9.32;;
61702;SDS011;47622;47.726;3.298;2022-07-24T07:09:32;11.98;;;7.75;;
61702;SDS011;47622;47.726;3.298;2022-07-24T07:11:57;9.60;;;8.43;;
61702;SDS011;47622;47.726;3.298;2022-07-24T07:14:23;10.13;;;8.15;;
61702;SDS011;47622;47.726;3.298;2022-07-24T07:16:49;10.35;;;8.57;;
61702;SDS011;47622;47.726;3.298;2022-07-24T07:19:15;7.88;;;6.95;;
61702;SDS011;47622;47.726;3.298;2022-07-24T07:21:42;9.70;;;7.28;;
61702;SDS011;47622;47.726;3.298;2022-07-24T07:24:08;8.40;;;6.88;;
61702;SDS011;47622;47.726;3.298;2022-07-24T07:26:34;8.60;;;6.32;;
61702;SDS011;47622;47.726;3.298;2022-07-24T07:29:00;11.60;;;6.13;;
61702;SDS011;47622;47.726;3.298;2022-07-24T07:31:25;7.75;;;6.03;;
61702;SDS011;47622;47.726;3.298;2022-07-24T07:33:53;6.85;;;5.13;;
61702;SDS011;47622;47.726;3.298;2022-07-24T07:36:19;6.75;;;5.50;;
61702;SDS011;47622;47.726;3.298;2022-07-24T07:38:45;6.38;;;4.93;;
61702;SDS011;47622;47.726;3.298;2022-07-24T07:41:11;5.70;;;5.13;;
61702;SDS011;47622;47.726;3.298;2022-07-24T07:43:37;10.00;;;5.38;;
61702;SDS011;47622;47.726;3.298;2022-07-24T07:46:04;7.50;;;5.03;;
61702;SDS011;47622;47.726;3.298;2022-07-24T07:48:30;5.47;;;4.88;;
61702;SDS011;47622;47.726;3.298;2022-07-24T07:50:56;7.40;;;4.85;;
61702;SDS011;47622;47.726;3.298;2022-07-24T07:53:23;7.75;;;4.78;;
61702;SDS011;47622;47.726;3.298;2022-07-24T07:55:49;5.60;;;4.95;;
61702;SDS011;47622;47.726;3.298;2022-07-24T07:58:19;6.25;;;4.65;;
61702;SDS011;47622;47.726;3.298;2022-07-24T08:00:46;6.10;;;4.85;;
61702;SDS011;47622;47.726;3.298;2022-07-24T08:03:12;7.22;;;4.78;;
61702;SDS011;47622;47.726;3.298;2022-07-24T08:05:38;5.18;;;4.28;;
61702;SDS011;47622;47.726;3.298;2022-07-24T08:08:04;6.40;;;4.80;;
61702;SDS011;47622;47.726;3.298;2022-07-24T08:10:30;5.50;;;4.50;;
61702;SDS011;47622;47.726;3.298;2022-07-24T08:12:55;8.85;;;5.22;;
61702;SDS011;47622;47.726;3.298;2022-07-24T08:15:21;6.50;;;4.90;;
61702;SDS011;47622;47.726;3.298;2022-07-24T08:17:51;4.88;;;4.38;;
61702;SDS011;47622;47.726;3.298;2022-07-24T08:20:18;6.00;;;5.07;;
61702;SDS011;47622;47.726;3.298;2022-07-24T08:22:47;6.68;;;4.80;;
61702;SDS011;47622;47.726;3.298;2022-07-24T08:25:13;6.07;;;4.82;;
61702;SDS011;47622;47.726;3.298;2022-07-24T08:27:39;7.97;;;4.80;;
61702;SDS011;47622;47.726;3.298;2022-07-24T08:30:05;6.40;;;4.88;;
61702;SDS011;47622;47.726;3.298;2022-07-24T08:32:31;8.63;;;4.40;;
61702;SDS011;47622;47.726;3.298;2022-07-24T08:34:57;7.25;;;4.82;;
61702;SDS011;47622;47.726;3.298;2022-07-24T08:37:23;7.90;;;5.10;;
61702;SDS011;47622;47.726;3.298;2022-07-24T08:39:48;6.43;;;4.72;;
61702;SDS011;47622;47.726;3.298;2022-07-24T08:42:15;5.50;;;4.78;;
61702;SDS011;47622;47.726;3.298;2022-07-24T08:44:41;6.65;;;4.75;;
61702;SDS011;47622;47.726;3.298;2022-07-24T08:47:08;6.38;;;5.00;;
61702;SDS011;47622;47.726;3.298;2022-07-24T08:49:35;5.85;;;4.60;;
61702;SDS011;47622;47.726;3.298;2022-07-24T08:52:04;7.85;;;4.82;;
61702;SDS011;47622;47.726;3.298;2022-07-24T08:54:33;6.70;;;4.82;;
61702;SDS011;47622;47.726;3.298;2022-07-24T08:57:02;5.68;;;4.78;;
61702;SDS011;47622;47.726;3.298;2022-07-24T08:59:30;7.55;;;4.82;;
61702;SDS011;47622;47.726;3.298;2022-07-24T09:01:56;5.40;;;4.90;;
61702;SDS011;47622;47.726;3.298;2022-07-24T09:04:37;5.80;;;4.78;;
61702;SDS011;47622;47.726;3.298;2022-07-24T09:07:04;7.30;;;5.20;;
61702;SDS011;47622;47.726;3.298;2022-07-24T09:09:32;16.92;;;6.13;;
61702;SDS011;47622;47.726;3.298;2022-07-24T09:12:05;5.47;;;4.65;;
61702;SDS011;47622;47.726;3.298;2022-07-24T09:14:32;5.60;;;4.65;;
61702;SDS011;47622;47.726;3.298;2022-07-24T09:17:06;4.78;;;4.20;;
61702;SDS011;47622;47.726;3.298;2022-07-24T09:25:16;5.32;;;4.82;;
61702;SDS011;47622;47.726;3.298;2022-07-24T09:27:50;6.50;;;5.80;;
61702;SDS011;47622;47.726;3.298;2022-07-24T09:30:51;7.97;;;5.18;;
61702;SDS011;47622;47.726;3.298;2022-07-24T09:35:37;5.30;;;4.80;;
61702;SDS011;47622;47.726;3.298;2022-07-24T09:38:04;5.55;;;5.05;;
61702;SDS011;47622;47.726;3.298;2022-07-24T09:40:34;5.90;;;5.25;;
61702;SDS011;47622;47.726;3.298;2022-07-24T09:43:15;5.35;;;4.70;;
61702;SDS011;47622;47.726;3.298;2022-07-24T09:45:52;6.35;;;5.25;;
61702;SDS011;47622;47.726;3.298;2022-07-24T09:50:58;8.00;;;5.15;;
61702;SDS011;47622;47.726;3.298;2022-07-24T09:53:39;7.93;;;5.95;;
61702;SDS011;47622;47.726;3.298;2022-07-24T09:56:09;6.63;;;5.40;;
61702;SDS011;47622;47.726;3.298;2022-07-24T09:58:40;5.38;;;4.80;;
61702;SDS011;47622;47.726;3.298;2022-07-24T10:01:20;6.63;;;5.05;;
61702;SDS011;47622;47.726;3.298;2022-07-24T10:03:48;7.45;;;5.35;;
61702;SDS011;47622;47.726;3.298;2022-07-24T10:06:20;7.35;;;4.97;;
61702;SDS011;47622;47.726;3.298;2022-07-24T10:08:50;6.53;;;5.25;;
61702;SDS011;47622;47.726;3.298;2022-07-24T10:11:16;6.53;;;5.20;;
61702;SDS011;47622;47.726;3.298;2022-07-24T10:13:43;6.07;;;5.47;;
61702;SDS011;47622;47.726;3.298;2022-07-24T10:18:55;6.40;;;5.70;;
61702;SDS011;47622;47.726;3.298;2022-07-24T10:21:30;8.60;;;5.97;;
61702;SDS011;47622;47.726;3.298;2022-07-24T10:29:09;7.63;;;5.30;;
61702;SDS011;47622;47.726;3.298;2022-07-24T10:31:45;5.97;;;5.25;;
61702;SDS011;47622;47.726;3.298;2022-07-24T10:34:33;8.25;;;4.88;;
61702;SDS011;47622;47.726;3.298;2022-07-24T10:39:58;6.43;;;5.82;;
61702;SDS011;47622;47.726;3.298;2022-07-24T10:47:42;6.05;;;5.45;;
61702;SDS011;47622;47.726;3.298;2022-07-24T10:50:08;6.55;;;5.25;;
61702;SDS011;47622;47.726;3.298;2022-07-24T10:52:34;5.85;;;5.35;;
61702;SDS011;47622;47.726;3.298;2022-07-24T11:00:37;6.70;;;5.03;;
61702;SDS011;47622;47.726;3.298;2022-07-24T11:06:04;5.38;;;4.50;;
61702;SDS011;47622;47.726;3.298;2022-07-24T11:08:31;6.03;;;4.53;;
61702;SDS011;47622;47.726;3.298;2022-07-24T11:11:10;7.10;;;4.90;;
61702;SDS011;47622;47.726;3.298;2022-07-24T11:18:42;5.88;;;5.25;;
61702;SDS011;47622;47.726;3.298;2022-07-24T11:21:28;5.50;;;4.72;;
61702;SDS011;47622;47.726;3.298;2022-07-24T11:26:58;5.22;;;4.72;;
61702;SDS011;47622;47.726;3.298;2022-07-24T11:29:30;4.82;;;4.28;;
61702;SDS011;47622;47.726;3.298;2022-07-24T11:32:10;6.47;;;4.70;;
61702;SDS011;47622;47.726;3.298;2022-07-24T11:34:45;5.40;;;4.32;;
61702;SDS011;47622;47.726;3.298;2022-07-24T11:37:13;9.73;;;4.60;;
61702;SDS011;47622;47.726;3.298;2022-07-24T11:39:40;5.75;;;4.75;;
61702;SDS011;47622;47.726;3.298;2022-07-24T11:42:13;6.72;;;4.90;;
61702;SDS011;47622;47.726;3.298;2022-07-24T11:44:45;4.93;;;4.43;;
61702;SDS011;47622;47.726;3.298;2022-07-24T11:47:24;4.90;;;4.50;;
61702;SDS011;47622;47.726;3.298;2022-07-24T11:50:02;6.25;;;4.80;;
61702;SDS011;47622;47.726;3.298;2022-07-24T11:52:37;5.55;;;4.22;;
61702;SDS011;47622;47.726;3.298;2022-07-24T11:55:11;5.00;;;4.47;;
61702;SDS011;47622;47.726;3.298;2022-07-24T11:57:42;6.82;;;4.47;;
61702;SDS011;47622;47.726;3.298;2022-07-24T12:00:14;6.13;;;4.55;;
61702;SDS011;47622;47.726;3.298;2022-07-24T12:05:23;5.63;;;4.32;;
61702;SDS011;47622;47.726;3.298;2022-07-24T12:07:50;4.65;;;4.10;;
61702;SDS011;47622;47.726;3.298;2022-07-24T12:10:20;4.57;;;4.00;;
61702;SDS011;47622;47.726;3.298;2022-07-24T12:12:48;5.20;;;4.70;;
61702;SDS011;47622;47.726;3.298;2022-07-24T12:15:15;4.97;;;4.40;;
61702;SDS011;47622;47.726;3.298;2022-07-24T12:20:27;5.22;;;4.13;;
61702;SDS011;47622;47.726;3.298;2022-07-24T12:23:04;4.80;;;4.25;;
61702;SDS011;47622;47.726;3.298;2022-07-24T12:25:35;4.93;;;4.45;;
61702;SDS011;47622;47.726;3.298;2022-07-24T12:28:05;5.05;;;4.10;;
61702;SDS011;47622;47.726;3.298;2022-07-24T12:30:36;5.32;;;4.07;;
61702;SDS011;47622;47.726;3.298;2022-07-24T12:41:16;5.88;;;4.20;;
61702;SDS011;47622;47.726;3.298;2022-07-24T12:43:46;5.00;;;4.50;;
61702;SDS011;47622;47.726;3.298;2022-07-24T12:46:17;4.72;;;4.28;;
61702;SDS011;47622;47.726;3.298;2022-07-24T12:49:01;4.93;;;4.18;;
61702;SDS011;47622;47.726;3.298;2022-07-24T12:54:28;4.93;;;4.30;;
61702;SDS011;47622;47.726;3.298;2022-07-24T12:56:57;4.60;;;4.15;;
61702;SDS011;47622;47.726;3.298;2022-07-24T12:59:28;4.88;;;4.38;;
61702;SDS011;47622;47.726;3.298;2022-07-24T13:02:02;4.75;;;4.20;;
61702;SDS011;47622;47.726;3.298;2022-07-24T13:04:29;4.60;;;4.10;;
61702;SDS011;47622;47.726;3.298;2022-07-24T13:06:56;4.88;;;4.43;;
61702;SDS011;47622;47.726;3.298;2022-07-24T13:09:24;5.97;;;4.13;;
61702;SDS011;47622;47.726;3.298;2022-07-24T13:11:51;4.85;;;4.38;;
61702;SDS011;47622;47.726;3.298;2022-07-24T13:14:19;4.75;;;4.28;;
61702;SDS011;47622;47.726;3.298;2022-07-24T13:16:47;5.47;;;4.20;;
61702;SDS011;47622;47.726;3.298;2022-07-24T13:19:13;5.07;;;4.32;;
61702;SDS011;47622;47.726;3.298;2022-07-24T13:21:41;4.63;;;4.10;;
61702;SDS011;47622;47.726;3.298;2022-07-24T13:24:08;4.97;;;4.47;;
61702;SDS011;47622;47.726;3.298;2022-07-24T13:26:36;5.13;;;4.20;;
61702;SDS011;47622;47.726;3.298;2022-07-24T13:29:03;5.07;;;4.60;;
61702;SDS011;47622;47.726;3.298;2022-07-24T13:31:29;5.18;;;4.20;;
61702;SDS011;47622;47.726;3.298;2022-07-24T13:33:55;4.50;;;4.10;;
61702;SDS011;47622;47.726;3.298;2022-07-24T13:36:22;7.13;;;4.57;;
61702;SDS011;47622;47.726;3.298;2022-07-24T13:38:48;4.85;;;4.35;;
61702;SDS011;47622;47.726;3.298;2022-07-24T13:41:14;4.50;;;4.10;;
61702;SDS011;47622;47.726;3.298;2022-07-24T13:43:43;5.90;;;4.70;;
61702;SDS011;47622;47.726;3.298;2022-07-24T13:46:13;7.22;;;4.43;;
61702;SDS011;47622;47.726;3.298;2022-07-24T13:48:39;5.03;;;3.97;;
61702;SDS011;47622;47.726;3.298;2022-07-24T13:51:06;5.53;;;4.32;;
61702;SDS011;47622;47.726;3.298;2022-07-24T13:53:32;5.75;;;4.50;;
61702;SDS011;47622;47.726;3.298;2022-07-24T13:55:59;4.85;;;4.38;;
61702;SDS011;47622;47.726;3.298;2022-07-24T13:58:24;4.97;;;4.20;;
61702;SDS011;47622;47.726;3.298;2022-07-24T14:00:51;6.60;;;4.18;;
61702;SDS011;47622;47.726;3.298;2022-07-24T14:03:17;5.10;;;4.30;;
61702;SDS011;47622;47.726;3.298;2022-07-24T14:05:43;5.00;;;4.40;;
61702;SDS011;47622;47.726;3.298;2022-07-24T14:08:09;5.35;;;4.85;;
61702;SDS011;47622;47.726;3.298;2022-07-24T14:10:34;4.60;;;4.10;;
61702;SDS011;47622;47.726;3.298;2022-07-24T14:13:00;4.68;;;4.13;;
61702;SDS011;47622;47.726;3.298;2022-07-24T14:15:26;6.55;;;4.38;;
61702;SDS011;47622;47.726;3.298;2022-07-24T14:17:55;4.50;;;4.10;;
61702;SDS011;47622;47.726;3.298;2022-07-24T14:20:21;6.13;;;4.20;;
61702;SDS011;47622;47.726;3.298;2022-07-24T14:22:48;5.80;;;4.40;;
61702;SDS011;47622;47.726;3.298;2022-07-24T14:25:14;6.38;;;4.15;;
61702;SDS011;47622;47.726;3.298;2022-07-24T14:27:40;5.22;;;4.15;;
61702;SDS011;47622;47.726;3.298;2022-07-24T14:30:09;4.85;;;4.40;;
61702;SDS011;47622;47.726;3.298;2022-07-24T14:32:35;5.25;;;4.22;;
61702;SDS011;47622;47.726;3.298;2022-07-24T14:35:01;5.65;;;4.68;;
61702;SDS011;47622;47.726;3.298;2022-07-24T14:37:31;6.20;;;4.95;;
61702;SDS011;47622;47.726;3.298;2022-07-24T14:39:58;6.80;;;4.47;;
61702;SDS011;47622;47.726;3.298;2022-07-24T14:42:24;4.57;;;4.10;;
61702;SDS011;47622;47.726;3.298;2022-07-24T14:44:49;4.90;;;4.50;;
61702;SDS011;47622;47.726;3.298;2022-07-24T14:47:16;4.85;;;4.20;;
61702;SDS011;47622;47.726;3.298;2022-07-24T14:49:42;4.30;;;3.90;;
61702;SDS011;47622;47.726;3.298;2022-07-24T14:52:09;6.95;;;4.57;;
61702;SDS011;47622;47.726;3.298;2022-07-24T14:54:35;5.05;;;4.22;;
61702;SDS011;47622;47.726;3.298;2022-07-24T14:57:01;7.03;;;4.70;;
61702;SDS011;47622;47.726;3.298;2022-07-24T14:59:30;5.13;;;4.50;;
61702;SDS011;47622;47.726;3.298;2022-07-24T15:01:56;5.15;;;4.45;;
61702;SDS011;47622;47.726;3.298;2022-07-24T15:09:12;4.95;;;4.47;;
61702;SDS011;47622;47.726;3.298;2022-07-24T15:11:38;5.13;;;4.13;;
61702;SDS011;47622;47.726;3.298;2022-07-24T15:14:04;5.25;;;4.45;;
61702;SDS011;47622;47.726;3.298;2022-07-24T15:16:30;4.50;;;4.10;;
61702;SDS011;47622;47.726;3.298;2022-07-24T15:18:56;5.53;;;4.57;;
61702;SDS011;47622;47.726;3.298;2022-07-24T15:21:22;4.40;;;3.97;;
61702;SDS011;47622;47.726;3.298;2022-07-24T15:23:47;4.65;;;4.00;;
61702;SDS011;47622;47.726;3.298;2022-07-24T15:26:13;4.65;;;4.20;;
61702;SDS011;47622;47.726;3.298;2022-07-24T15:28:39;4.90;;;4.30;;
61702;SDS011;47622;47.726;3.298;2022-07-24T15:31:05;6.38;;;4.70;;
61702;SDS011;47622;47.726;3.298;2022-07-24T15:33:31;5.13;;;4.65;;
61702;SDS011;47622;47.726;3.298;2022-07-24T15:35:56;5.13;;;4.63;;
61702;SDS011;47622;47.726;3.298;2022-07-24T15:38:22;5.53;;;4.97;;
61702;SDS011;47622;47.726;3.298;2022-07-24T15:40:48;5.90;;;4.90;;
61702;SDS011;47622;47.726;3.298;2022-07-24T15:43:14;5.35;;;4.45;;
61702;SDS011;47622;47.726;3.298;2022-07-24T15:45:39;6.60;;;4.60;;
61702;SDS011;47622;47.726;3.298;2022-07-24T15:48:05;4.78;;;4.30;;
61702;SDS011;47622;47.726;3.298;2022-07-24T15:50:31;4.70;;;4.30;;